Flight Track Log - Related Links

Times and Time Zones

All times are in EDT time to prevent confusion due to time zone crossing. See the N143DE flight status page for this flight to view local times or setup timezone preferences in your user account.

Time Position Orientation Groundspeed Altitude Reporting Facility
EDT Latitude Longitude Course Direction KTS MPH feet Rate Location/Type
Wed 11:03:56 AM 29.9864 -90.2536 181° South 127 146 400  Level Houston Center
Wed 11:04:55 AM 29.9461 -90.2542 176° South 151 174 2,700 2,331 Climbing Houston Center
Wed 11:05:57 AM 29.9167 -90.2331 148° Southeast 167 192 5,100 2,226 Climbing Houston Center
Wed 11:06:59 AM 29.9025 -90.1872 110° East 158 182 7,300 2,226 Climbing Houston Center
Wed 11:08:01 AM 29.9103 -90.1353 80° East 170 196 9,700 2,419 Climbing Houston Center
Wed 11:09:03 AM 29.9278 -90.0769 71° East 164 189 12,300 1,984 Climbing Houston Center
Wed 11:10:05 AM 29.9628 -90.0450 38° Northeast 176 203 13,800 1,258 Climbing Houston Center
Wed 11:11:07 AM 30.0167 -90.0308 13° North 192 221 14,900 629 Climbing Houston Center
Wed 11:12:09 AM 30.0808 -90.0128 14° North 230 265 15,100 48 Climbing Houston Center
Wed 11:13:11 AM 30.1417 -89.9947 14° North 229 264 15,000 435 Descending Houston Center
Wed 11:14:13 AM 30.1992 -89.9764 15° North 217 250 16,000 1,306 Climbing Houston Center
Wed 11:15:15 AM 30.2536 -89.9175 43° Northeast 222 255 17,700 1,344 Climbing Houston Center
Wed 11:16:18 AM 30.3006 -89.8714 40° Northeast 220 253 18,800 1,056 Climbing Houston Center
Wed 11:17:20 AM 30.3508 -89.8233 40° Northeast 226 260 19,900 968 Climbing Houston Center
Wed 11:18:22 AM 30.4025 -89.7736 40° Northeast 229 264 20,800 871 Climbing Houston Center
Wed 11:19:24 AM 30.4519 -89.7250 40° Northeast 229 264 21,700 774 Climbing Houston Center
Wed 11:20:26 AM 30.5000 -89.6742 42° Northeast 234 269 22,400 726 Climbing Houston Center
Wed 11:21:28 AM 30.5397 -89.6125 53° Northeast 238 274 23,200 871 Climbing Houston Center
Wed 11:22:30 AM 30.5678 -89.5486 63° Northeast 224 258 24,200 823 Climbing Houston Center
Wed 11:23:32 AM 30.6044 -89.4889 54° Northeast 226 260 24,900 435 Climbing Houston Center
Wed 11:24:34 AM 30.6447 -89.4100 59° Northeast 240 276 25,100 97 Climbing Houston Center
Wed 11:25:36 AM 30.6806 -89.3383 60° Northeast 254 292 25,100  Level Houston Center
Wed 11:26:38 AM 30.7206 -89.2653 57° Northeast 266 306 25,100  Level Houston Center
Wed 11:27:40 AM 30.7592 -89.1894 59° Northeast 272 313 25,100  Level Houston Center
Wed 11:28:42 AM 30.7981 -89.1158 58° Northeast 268 308 25,100 -48 Level Houston Center
Wed 11:29:44 AM 30.8367 -89.0406 59° Northeast 271 312 25,000  Descending Houston Center
Wed 11:30:46 AM 30.8839 -88.9503 59° Northeast 273 314 25,100 48 Climbing Houston Center
Wed 11:31:48 AM 30.9225 -88.8769 58° Northeast 271 312 25,100  Level Houston Center
Wed 11:32:50 AM 30.9622 -88.8025 58° Northeast 271 312 25,100  Level Houston Center
Wed 11:33:52 AM 31.0017 -88.7272 59° Northeast 272 313 25,100  Level Houston Center
Wed 11:34:54 AM 31.0408 -88.6531 58° Northeast 269 310 25,100  Level Houston Center
Wed 11:35:56 AM 31.0803 -88.5775 59° Northeast 270 311 25,100  Level Houston Center
Wed 11:36:59 AM 31.1244 -88.4881 60° Northeast 267 307 25,100  Level Houston Center
Wed 11:38:01 AM 31.1647 -88.4139 58° Northeast 269 310 25,100  Level Houston Center
Wed 11:39:03 AM 31.2033 -88.3408 58° Northeast 266 306 25,100  Level Houston Center
Wed 11:39:28 AM 31.2242 -88.3072 54° Northeast 252 290 25,100  Level Atlanta Center
Wed 11:40:28 AM 31.2622 -88.2339 59° Northeast 258 297 25,100  Level Atlanta Center
Wed 11:41:28 AM 31.3000 -88.1628 58° Northeast 258 297 25,100  Level Atlanta Center
Wed 11:42:09 AM 31.3172 -88.1219 64° Northeast 255 293 25,100  Level Houston Center
Wed 11:43:11 AM 31.3547 -88.0500 59° Northeast 257 296 25,100  Level Houston Center
Wed 11:44:13 AM 31.3986 -87.9617 60° Northeast 262 302 25,100  Level Houston Center
Wed 11:44:28 AM 31.4094 -87.9461 51° Northeast 258 297 25,100  Level Atlanta Center
Wed 11:45:28 AM 31.4472 -87.8750 58° Northeast 253 291 25,100  Level Atlanta Center
Wed 11:46:28 AM 31.4847 -87.8033 58° Northeast 253 291 25,100  Level Atlanta Center
Wed 11:47:28 AM 31.5225 -87.7319 58° Northeast 253 291 25,100  Level Atlanta Center
Wed 11:48:28 AM 31.5581 -87.6578 61° Northeast 253 291 25,100  Level Atlanta Center
Wed 11:49:28 AM 31.5956 -87.5861 58° Northeast 253 291 25,100  Level Atlanta Center
Wed 11:50:28 AM 31.6331 -87.5144 58° Northeast 253 291 25,100  Level Atlanta Center
Wed 11:51:28 AM 31.6683 -87.4428 60° Northeast 253 291 25,100  Level Atlanta Center
Wed 11:52:28 AM 31.7039 -87.3708 60° Northeast 253 291 25,100  Level Atlanta Center
Wed 11:53:28 AM 31.7328 -87.3011 64° Northeast 253 291 25,100  Level Atlanta Center
Wed 11:54:28 AM 31.7703 -87.2292 58° Northeast 253 291 25,100  Level Atlanta Center
Wed 11:55:28 AM 31.8075 -87.1572 59° Northeast 253 291 25,100  Level Atlanta Center
Wed 11:56:28 AM 31.8425 -87.0875 59° Northeast 253 291 25,100  Level Atlanta Center
Wed 11:57:28 AM 31.8778 -87.0128 61° Northeast 248 285 25,100 -350 Level Atlanta Center
Wed 11:58:28 AM 31.9150 -86.9358 60° Northeast 248 285 24,400 -500 Descending Atlanta Center
Wed 11:59:28 AM 31.9544 -86.8611 58° Northeast 259 298 24,100 -200 Descending Atlanta Center
Wed 12:00:28 PM 31.9917 -86.7839 60° Northeast 264 304 24,000 -550 Descending Atlanta Center
Wed 12:01:28 PM 32.0372 -86.6994 58° Northeast 264 304 23,000 -950 Descending Atlanta Center
Wed 12:02:28 PM 32.0764 -86.6272 57° Northeast 264 304 22,100 -850 Descending Atlanta Center
Wed 12:03:28 PM 32.1133 -86.5547 59° Northeast 264 304 21,300 -900 Descending Atlanta Center
Wed 12:04:28 PM 32.1461 -86.4819 62° Northeast 253 291 20,300 -900 Descending Atlanta Center
Wed 12:05:28 PM 32.1808 -86.4119 60° Northeast 247 284 19,500 -800 Descending Atlanta Center
Wed 12:06:28 PM 32.2072 -86.3464 65° Northeast 247 284 18,700 -850 Descending Atlanta Center
Wed 12:07:28 PM 32.2481 -86.2761 55° Northeast 237 273 17,800 -800 Descending Atlanta Center
Wed 12:08:28 PM 32.2972 -86.2183 45° Northeast 232 267 17,100 -800 Descending Atlanta Center
Wed 12:09:28 PM 32.3419 -86.1606 47° Northeast 232 267 16,200 -750 Descending Atlanta Center
Wed 12:10:28 PM 32.3869 -86.1050 46° Northeast 232 267 15,600 -750 Descending Atlanta Center
Wed 12:11:28 PM 32.4231 -86.0517 51° Northeast 227 261 14,700 -1,150 Descending Atlanta Center
Wed 12:12:28 PM 32.4594 -86.0008 50° Northeast 212 244 13,300 -1,500 Descending Atlanta Center
Wed 12:13:28 PM 32.4958 -85.9500 50° Northeast 207 238 11,700 -1,200 Descending Atlanta Center
Wed 12:14:28 PM 32.5361 -85.8992 47° Northeast 202 232 10,900 -400 Descending Atlanta Center
Wed 12:15:28 PM 32.5744 -85.8456 50° Northeast 207 238 10,900  Level Atlanta Center
Wed 12:16:28 PM 32.6172 -85.7847 50° Northeast 221 254 10,900  Level Atlanta Center
Wed 12:17:28 PM 32.6661 -85.7242 46° Northeast 238 274 10,900 -300 Level Atlanta Center
Wed 12:18:28 PM 32.7150 -85.6583 49° Northeast 248 285 10,300 -500 Descending Atlanta Center
Wed 12:19:28 PM 32.7639 -85.5925 49° Northeast 259 298 9,900 -150 Descending Atlanta Center
Wed 12:20:28 PM 32.8106 -85.5267 50° Northeast 259 298 10,000 50 Climbing Atlanta Center
Wed 12:21:28 PM 32.8572 -85.4631 49° Northeast 254 292 10,000  Level Atlanta Center
Wed 12:22:28 PM 32.9058 -85.3997 48° Northeast 254 292 10,000  Level Atlanta Center
Wed 12:24:55 PM 33.0167 -85.2500 49° Northeast 252 290 10,000 -29 Level Atlanta TRACON
Wed 12:25:55 PM 33.0667 -85.2000 40° Northeast 245 282 9,900 -762 Descending Atlanta TRACON
Wed 12:27:01 PM 33.1500 -85.1833 10° North 234 269 8,400 -1,286 Descending Atlanta TRACON
Wed 12:28:01 PM 33.2167 -85.1500 23° Northeast 244 281 7,200 -737 Descending Atlanta TRACON
Wed 12:28:55 PM 33.2667 -85.1333 16° North 226 260 7,000 -211 Descending Atlanta TRACON
Wed 12:29:55 PM 33.3167 -85.1333 360° North 215 247 6,800 -600 Descending Atlanta TRACON
Wed 12:30:55 PM 33.3833 -85.1333 360° North 228 262 5,800 -1,100 Descending Atlanta TRACON
Wed 12:31:55 PM 33.4500 -85.1333 360° North 230 265 4,600 -950 Descending Atlanta TRACON
Wed 12:32:55 PM 33.5167 -85.1333 360° North 211 243 3,900 -350 Descending Atlanta TRACON
Wed 12:33:55 PM 33.5500 -85.1333 360° North 170 196 3,900  Level Atlanta TRACON
Wed 12:34:49 PM 33.6000 -85.1333 360° North 176 203 3,900  Level Atlanta TRACON
Wed 12:35:49 PM 33.6500 -85.1333 360° North 171 197 3,900  Level Atlanta TRACON
Wed 12:36:49 PM 33.6833 -85.1000 40° Northeast 163 188 3,900  Level Atlanta TRACON
Wed 12:37:49 PM 33.7167 -85.0667 40° Northeast 173 199 3,900 -50 Level Atlanta TRACON
Wed 12:38:49 PM 33.7500 -85.0333 40° Northeast 159 183 3,800 -450 Descending Atlanta TRACON
Wed 12:39:49 PM 33.7833 -85.0000 40° Northeast 155 178 3,000 -450 Descending Atlanta TRACON
Wed 12:40:49 PM 33.8000 -84.9667 59° Northeast 134 154 2,900 -50 Descending Atlanta TRACON
Wed 12:41:49 PM 33.8333 -84.9333 40° Northeast 134 154 2,900  Level Atlanta TRACON
Wed 12:42:55 PM 33.8667 -84.9000 40° Northeast 138 159 2,900  Level Atlanta TRACON
Wed 12:43:55 PM 33.9000 -84.8667 40° Northeast 139 160 2,900  Level Atlanta TRACON
Wed 12:44:55 PM 33.9167 -84.8333 59° Northeast 138 159 2,900  Level Atlanta TRACON
Wed 12:45:49 PM 33.9500 -84.8333 360° North 142 163 2,900  Level Atlanta TRACON
Wed 12:46:49 PM 34.0000 -84.8333 360° North 149 171 2,900 -100 Level Atlanta TRACON
Wed 12:47:49 PM 34.0000 -84.7833 90° East 129 148 2,700 -100 Descending Atlanta TRACON
Wed 12:48:49 PM 34.0167 -84.7500 59° Northeast 121 139 2,700  Level Atlanta TRACON
Wed 12:49:49 PM 34.0167 -84.7167 90° East 109 125 2,700 -150 Level Atlanta TRACON
Wed 12:50:49 PM 34.0167 -84.6833 90° East 114 131 2,400 -300 Descending Atlanta TRACON
Wed 12:53:00 PM 34.0132 -84.5971 68° East  Level Estimated

Login

Don't have an account? Register now (free) for customized features, flight alerts, and more!